<?xml version="1.0" encoding="UTF-8" standalone="no" ?>
<gpx version="1.1" creator="Visorando" xmlns:xsi="http://www.w3.org/2001/XMLSchema-instance" xmlns="http://www.topografix.com/GPX/1/1" xsi:schemaLocation="http://www.topografix.com/GPX/1/1 http://www.topografix.com/GPX/1/1/gpx.xsd">
<metadata><name>Randonnée du 28/02/2021 à 12:58</name><link href=""><text></text></link></metadata><wpt lat="14.834181" lon="-61.208731"><ele>134</ele><time>2021-02-28T14:09:56+01:00</time><name>bassin dimitri</name></wpt><wpt lat="14.832296" lon="-61.206299"><ele>152</ele><time>2021-02-28T14:34:01+01:00</time><name>bassin david</name></wpt><wpt lat="14.832532" lon="-61.205361"><ele>167</ele><time>2021-02-28T14:40:57+01:00</time><name>cascade</name></wpt><wpt lat="14.832338" lon="-61.203194"><ele>191</ele><time>2021-02-28T15:10:25+01:00</time><name>separation chapelle des riches</name></wpt><trk><name>Randonnée du 28/02/2021 à 12:58</name><trkseg><trkpt lat="14.831526" lon="-61.225298"><ele>9</ele><time>2021-02-28T12:58:09+01:00</time></trkpt><trkpt lat="14.831363" lon="-61.224998"><ele>16</ele><time>2021-02-28T13:02:31+01:00</time></trkpt><trkpt lat="14.831219" lon="-61.224814"><ele>20</ele><time>2021-02-28T13:02:54+01:00</time></trkpt><trkpt lat="14.831172" lon="-61.224583"><ele>20</ele><time>2021-02-28T13:03:45+01:00</time></trkpt><trkpt lat="14.831174" lon="-61.22435"><ele>21</ele><time>2021-02-28T13:04:31+01:00</time></trkpt><trkpt lat="14.831156" lon="-61.224118"><ele>26</ele><time>2021-02-28T13:05:05+01:00</time></trkpt><trkpt lat="14.831042" lon="-61.223913"><ele>20</ele><time>2021-02-28T13:05:39+01:00</time></trkpt><trkpt lat="14.830963" lon="-61.223689"><ele>25</ele><time>2021-02-28T13:06:23+01:00</time></trkpt><trkpt lat="14.830855" lon="-61.223477"><ele>22</ele><time>2021-02-28T13:06:52+01:00</time></trkpt><trkpt lat="14.830753" lon="-61.223264"><ele>23</ele><time>2021-02-28T13:07:31+01:00</time></trkpt><trkpt lat="14.830659" lon="-61.223048"><ele>27</ele><time>2021-02-28T13:08:06+01:00</time></trkpt><trkpt lat="14.830588" lon="-61.222816"><ele>28</ele><time>2021-02-28T13:08:35+01:00</time></trkpt><trkpt lat="14.830453" lon="-61.222622"><ele>30</ele><time>2021-02-28T13:10:24+01:00</time></trkpt><trkpt lat="14.830409" lon="-61.222854"><ele>30</ele><time>2021-02-28T13:16:11+01:00</time></trkpt><trkpt lat="14.830566" lon="-61.222686"><ele>28</ele><time>2021-02-28T13:22:43+01:00</time></trkpt><trkpt lat="14.830691" lon="-61.222491"><ele>29</ele><time>2021-02-28T13:23:48+01:00</time></trkpt><trkpt lat="14.83079" lon="-61.222279"><ele>31</ele><time>2021-02-28T13:24:31+01:00</time></trkpt><trkpt lat="14.830772" lon="-61.222042"><ele>38</ele><time>2021-02-28T13:25:32+01:00</time></trkpt><trkpt lat="14.830978" lon="-61.22193"><ele>34</ele><time>2021-02-28T13:26:06+01:00</time></trkpt><trkpt lat="14.830962" lon="-61.221691"><ele>41</ele><time>2021-02-28T13:26:38+01:00</time></trkpt><trkpt lat="14.830742" lon="-61.221624"><ele>47</ele><time>2021-02-28T13:27:13+01:00</time></trkpt><trkpt lat="14.830531" lon="-61.221527"><ele>40</ele><time>2021-02-28T13:27:48+01:00</time></trkpt><trkpt lat="14.830405" lon="-61.221331"><ele>36</ele><time>2021-02-28T13:28:36+01:00</time></trkpt><trkpt lat="14.830292" lon="-61.221119"><ele>44</ele><time>2021-02-28T13:29:01+01:00</time></trkpt><trkpt lat="14.830364" lon="-61.220893"><ele>44</ele><time>2021-02-28T13:29:32+01:00</time></trkpt><trkpt lat="14.830372" lon="-61.220655"><ele>45</ele><time>2021-02-28T13:30:14+01:00</time></trkpt><trkpt lat="14.830236" lon="-61.220465"><ele>45</ele><time>2021-02-28T13:30:53+01:00</time></trkpt><trkpt lat="14.830123" lon="-61.220257"><ele>53</ele><time>2021-02-28T13:31:48+01:00</time></trkpt><trkpt lat="14.830053" lon="-61.220018"><ele>49</ele><time>2021-02-28T13:32:25+01:00</time></trkpt><trkpt lat="14.830148" lon="-61.219796"><ele>49</ele><time>2021-02-28T13:33:28+01:00</time></trkpt><trkpt lat="14.830205" lon="-61.219569"><ele>50</ele><time>2021-02-28T13:33:53+01:00</time></trkpt><trkpt lat="14.830257" lon="-61.219336"><ele>47</ele><time>2021-02-28T13:34:33+01:00</time></trkpt><trkpt lat="14.830093" lon="-61.219174"><ele>51</ele><time>2021-02-28T13:35:08+01:00</time></trkpt><trkpt lat="14.830056" lon="-61.218936"><ele>52</ele><time>2021-02-28T13:35:55+01:00</time></trkpt><trkpt lat="14.829868" lon="-61.218794"><ele>62</ele><time>2021-02-28T13:36:23+01:00</time></trkpt><trkpt lat="14.829887" lon="-61.218561"><ele>58</ele><time>2021-02-28T13:36:58+01:00</time></trkpt><trkpt lat="14.830072" lon="-61.218421"><ele>59</ele><time>2021-02-28T13:37:37+01:00</time></trkpt><trkpt lat="14.830294" lon="-61.218379"><ele>52</ele><time>2021-02-28T13:38:12+01:00</time></trkpt><trkpt lat="14.830509" lon="-61.218302"><ele>61</ele><time>2021-02-28T13:38:41+01:00</time></trkpt><trkpt lat="14.830725" lon="-61.218218"><ele>60</ele><time>2021-02-28T13:39:20+01:00</time></trkpt><trkpt lat="14.830937" lon="-61.218062"><ele>63</ele><time>2021-02-28T13:39:51+01:00</time></trkpt><trkpt lat="14.83107" lon="-61.217866"><ele>63</ele><time>2021-02-28T13:40:36+01:00</time></trkpt><trkpt lat="14.83118" lon="-61.217661"><ele>64</ele><time>2021-02-28T13:41:01+01:00</time></trkpt><trkpt lat="14.831213" lon="-61.217423"><ele>57</ele><time>2021-02-28T13:41:40+01:00</time></trkpt><trkpt lat="14.831288" lon="-61.217201"><ele>69</ele><time>2021-02-28T13:42:10+01:00</time></trkpt><trkpt lat="14.831302" lon="-61.216967"><ele>69</ele><time>2021-02-28T13:42:51+01:00</time></trkpt><trkpt lat="14.831417" lon="-61.216759"><ele>71</ele><time>2021-02-28T13:43:37+01:00</time></trkpt><trkpt lat="14.831372" lon="-61.216524"><ele>71</ele><time>2021-02-28T13:44:07+01:00</time></trkpt><trkpt lat="14.831328" lon="-61.216295"><ele>71</ele><time>2021-02-28T13:44:29+01:00</time></trkpt><trkpt lat="14.831419" lon="-61.216056"><ele>77</ele><time>2021-02-28T13:45:02+01:00</time></trkpt><trkpt lat="14.831514" lon="-61.215836"><ele>68</ele><time>2021-02-28T13:45:45+01:00</time></trkpt><trkpt lat="14.831687" lon="-61.215686"><ele>70</ele><time>2021-02-28T13:46:28+01:00</time></trkpt><trkpt lat="14.831858" lon="-61.215531"><ele>74</ele><time>2021-02-28T13:46:52+01:00</time></trkpt><trkpt lat="14.831851" lon="-61.215294"><ele>83</ele><time>2021-02-28T13:47:49+01:00</time></trkpt><trkpt lat="14.831837" lon="-61.215053"><ele>75</ele><time>2021-02-28T13:48:15+01:00</time></trkpt><trkpt lat="14.83174" lon="-61.214843"><ele>80</ele><time>2021-02-28T13:48:42+01:00</time></trkpt><trkpt lat="14.831752" lon="-61.214608"><ele>81</ele><time>2021-02-28T13:49:19+01:00</time></trkpt><trkpt lat="14.831733" lon="-61.214352"><ele>83</ele><time>2021-02-28T13:50:01+01:00</time></trkpt><trkpt lat="14.831795" lon="-61.214119"><ele>88</ele><time>2021-02-28T13:50:35+01:00</time></trkpt><trkpt lat="14.832005" lon="-61.214021"><ele>83</ele><time>2021-02-28T13:51:08+01:00</time></trkpt><trkpt lat="14.832231" lon="-61.213981"><ele>93</ele><time>2021-02-28T13:51:42+01:00</time></trkpt><trkpt lat="14.832146" lon="-61.213765"><ele>88</ele><time>2021-02-28T13:52:18+01:00</time></trkpt><trkpt lat="14.832331" lon="-61.213615"><ele>88</ele><time>2021-02-28T13:52:57+01:00</time></trkpt><trkpt lat="14.832412" lon="-61.213392"><ele>88</ele><time>2021-02-28T13:53:30+01:00</time></trkpt><trkpt lat="14.832527" lon="-61.21319"><ele>95</ele><time>2021-02-28T13:54:14+01:00</time></trkpt><trkpt lat="14.832702" lon="-61.213028"><ele>91</ele><time>2021-02-28T13:54:41+01:00</time></trkpt><trkpt lat="14.832819" lon="-61.212816"><ele>97</ele><time>2021-02-28T13:55:04+01:00</time></trkpt><trkpt lat="14.832953" lon="-61.212623"><ele>98</ele><time>2021-02-28T13:55:59+01:00</time></trkpt><trkpt lat="14.833149" lon="-61.212507"><ele>103</ele><time>2021-02-28T13:56:30+01:00</time></trkpt><trkpt lat="14.833224" lon="-61.212285"><ele>107</ele><time>2021-02-28T13:57:18+01:00</time></trkpt><trkpt lat="14.833365" lon="-61.212102"><ele>108</ele><time>2021-02-28T13:58:04+01:00</time></trkpt><trkpt lat="14.833605" lon="-61.212083"><ele>110</ele><time>2021-02-28T13:58:27+01:00</time></trkpt><trkpt lat="14.833635" lon="-61.211846"><ele>108</ele><time>2021-02-28T13:58:54+01:00</time></trkpt><trkpt lat="14.833606" lon="-61.211608"><ele>106</ele><time>2021-02-28T13:59:59+01:00</time></trkpt><trkpt lat="14.833622" lon="-61.211366"><ele>105</ele><time>2021-02-28T14:00:34+01:00</time></trkpt><trkpt lat="14.833768" lon="-61.211187"><ele>109</ele><time>2021-02-28T14:01:14+01:00</time></trkpt><trkpt lat="14.833989" lon="-61.211121"><ele>117</ele><time>2021-02-28T14:01:46+01:00</time></trkpt><trkpt lat="14.834182" lon="-61.210981"><ele>116</ele><time>2021-02-28T14:02:21+01:00</time></trkpt><trkpt lat="14.834194" lon="-61.210748"><ele>120</ele><time>2021-02-28T14:03:01+01:00</time></trkpt><trkpt lat="14.834256" lon="-61.210521"><ele>120</ele><time>2021-02-28T14:04:04+01:00</time></trkpt><trkpt lat="14.834179" lon="-61.210293"><ele>114</ele><time>2021-02-28T14:04:44+01:00</time></trkpt><trkpt lat="14.834139" lon="-61.210048"><ele>126</ele><time>2021-02-28T14:05:22+01:00</time></trkpt><trkpt lat="14.834083" lon="-61.209821"><ele>115</ele><time>2021-02-28T14:06:00+01:00</time></trkpt><trkpt lat="14.834117" lon="-61.20959"><ele>112</ele><time>2021-02-28T14:07:01+01:00</time></trkpt><trkpt lat="14.834205" lon="-61.209375"><ele>120</ele><time>2021-02-28T14:07:51+01:00</time></trkpt><trkpt lat="14.834192" lon="-61.209136"><ele>126</ele><time>2021-02-28T14:08:35+01:00</time></trkpt><trkpt lat="14.834308" lon="-61.208926"><ele>131</ele><time>2021-02-28T14:09:25+01:00</time></trkpt><trkpt lat="14.834181" lon="-61.208731"><ele>134</ele><time>2021-02-28T14:09:56+01:00</time></trkpt><trkpt lat="14.83411" lon="-61.208502"><ele>140</ele><time>2021-02-28T14:11:04+01:00</time></trkpt><trkpt lat="14.83418" lon="-61.208267"><ele>142</ele><time>2021-02-28T14:14:19+01:00</time></trkpt><trkpt lat="14.834187" lon="-61.208514"><ele>142</ele><time>2021-02-28T14:15:15+01:00</time></trkpt><trkpt lat="14.833962" lon="-61.208482"><ele>142</ele><time>2021-02-28T14:21:27+01:00</time></trkpt><trkpt lat="14.833778" lon="-61.208656"><ele>147</ele><time>2021-02-28T14:22:52+01:00</time></trkpt><trkpt lat="14.833688" lon="-61.208438"><ele>149</ele><time>2021-02-28T14:24:15+01:00</time></trkpt><trkpt lat="14.833452" lon="-61.208423"><ele>152</ele><time>2021-02-28T14:25:27+01:00</time></trkpt><trkpt lat="14.833374" lon="-61.208197"><ele>146</ele><time>2021-02-28T14:25:57+01:00</time></trkpt><trkpt lat="14.833408" lon="-61.207954"><ele>142</ele><time>2021-02-28T14:26:22+01:00</time></trkpt><trkpt lat="14.833382" lon="-61.207712"><ele>144</ele><time>2021-02-28T14:27:10+01:00</time></trkpt><trkpt lat="14.833346" lon="-61.207477"><ele>146</ele><time>2021-02-28T14:27:54+01:00</time></trkpt><trkpt lat="14.833233" lon="-61.207276"><ele>151</ele><time>2021-02-28T14:28:37+01:00</time></trkpt><trkpt lat="14.833188" lon="-61.207033"><ele>151</ele><time>2021-02-28T14:28:58+01:00</time></trkpt><trkpt lat="14.832978" lon="-61.206918"><ele>145</ele><time>2021-02-28T14:29:24+01:00</time></trkpt><trkpt lat="14.832804" lon="-61.20675"><ele>150</ele><time>2021-02-28T14:30:13+01:00</time></trkpt><trkpt lat="14.832583" lon="-61.206672"><ele>148</ele><time>2021-02-28T14:32:18+01:00</time></trkpt><trkpt lat="14.832414" lon="-61.206511"><ele>150</ele><time>2021-02-28T14:32:51+01:00</time></trkpt><trkpt lat="14.832296" lon="-61.206299"><ele>152</ele><time>2021-02-28T14:34:01+01:00</time></trkpt><trkpt lat="14.832137" lon="-61.206124"><ele>158</ele><time>2021-02-28T14:35:18+01:00</time></trkpt><trkpt lat="14.832125" lon="-61.20589"><ele>163</ele><time>2021-02-28T14:38:44+01:00</time></trkpt><trkpt lat="14.832246" lon="-61.205688"><ele>162</ele><time>2021-02-28T14:39:12+01:00</time></trkpt><trkpt lat="14.832457" lon="-61.205582"><ele>167</ele><time>2021-02-28T14:39:58+01:00</time></trkpt><trkpt lat="14.832532" lon="-61.205361"><ele>167</ele><time>2021-02-28T14:40:57+01:00</time></trkpt><trkpt lat="14.83276" lon="-61.205356"><ele>174</ele><time>2021-02-28T14:43:25+01:00</time></trkpt><trkpt lat="14.832554" lon="-61.205455"><ele>172</ele><time>2021-02-28T14:44:07+01:00</time></trkpt><trkpt lat="14.832772" lon="-61.205388"><ele>174</ele><time>2021-02-28T14:50:38+01:00</time></trkpt><trkpt lat="14.832554" lon="-61.205304"><ele>171</ele><time>2021-02-28T14:51:54+01:00</time></trkpt><trkpt lat="14.83278" lon="-61.205272"><ele>169</ele><time>2021-02-28T14:52:52+01:00</time></trkpt><trkpt lat="14.832662" lon="-61.205074"><ele>172</ele><time>2021-02-28T14:54:18+01:00</time></trkpt><trkpt lat="14.832588" lon="-61.204843"><ele>174</ele><time>2021-02-28T14:55:02+01:00</time></trkpt><trkpt lat="14.83248" lon="-61.204632"><ele>179</ele><time>2021-02-28T14:56:44+01:00</time></trkpt><trkpt lat="14.832534" lon="-61.204401"><ele>180</ele><time>2021-02-28T14:57:30+01:00</time></trkpt><trkpt lat="14.83237" lon="-61.204233"><ele>183</ele><time>2021-02-28T14:58:26+01:00</time></trkpt><trkpt lat="14.832278" lon="-61.204015"><ele>184</ele><time>2021-02-28T15:07:23+01:00</time></trkpt><trkpt lat="14.832198" lon="-61.203795"><ele>187</ele><time>2021-02-28T15:08:18+01:00</time></trkpt><trkpt lat="14.832324" lon="-61.203602"><ele>196</ele><time>2021-02-28T15:09:10+01:00</time></trkpt><trkpt lat="14.832213" lon="-61.203397"><ele>183</ele><time>2021-02-28T15:09:56+01:00</time></trkpt><trkpt lat="14.832338" lon="-61.203194"><ele>191</ele><time>2021-02-28T15:10:25+01:00</time></trkpt><trkpt lat="14.83255" lon="-61.20311"><ele>207</ele><time>2021-02-28T15:16:48+01:00</time></trkpt><trkpt lat="14.832736" lon="-61.202977"><ele>207</ele><time>2021-02-28T15:17:39+01:00</time></trkpt><trkpt lat="14.832965" lon="-61.202996"><ele>213</ele><time>2021-02-28T15:18:19+01:00</time></trkpt></trkseg></trk></gpx>